Time;durP1;ratioP1;P1;durP2;ratioP2;P2;SDS_P1;SDS_P2;PMS_P1;PMS_P2;Temp;Humidity;BMP_temperature;BMP_pressure;BME280_temperature;BME280_humidity;BME280_pressure;Samples;Min_cycle;Max_cycle;Signal;HPM_P1;HPM_P2
2023/11/10 00:01:30;;;;;;;1.85;1.65;;;6.40;99.90;;;;;;5040563;28;20045;-64
2023/11/10 00:04:04;;;;;;;2.97;2.13;;;6.40;99.90;;;;;;5034233;28;20402;-64
2023/11/10 00:06:36;;;;;;;3.25;1.90;;;6.40;99.90;;;;;;5012238;28;20572;-64
2023/11/10 00:09:08;;;;;;;2.90;2.25;;;6.40;99.90;;;;;;5033779;28;20112;-64
2023/11/10 00:11:44;;;;;;;2.50;2.05;;;6.40;99.90;;;;;;5019249;28;20525;-64
2023/11/10 00:14:16;;;;;;;2.60;2.00;;;6.40;99.90;;;;;;5022141;28;20044;-64
2023/11/10 00:16:48;;;;;;;2.40;2.05;;;6.30;99.90;;;;;;5027658;28;20045;-64
2023/11/10 00:19:20;;;;;;;5.18;1.88;;;6.30;99.90;;;;;;5023125;28;20044;-65
2023/11/10 00:21:51;;;;;;;2.67;2.00;;;6.30;99.90;;;;;;5012298;28;20041;-65
2023/11/10 00:24:23;;;;;;;3.50;2.50;;;6.30;99.90;;;;;;5021771;28;20033;-64
2023/11/10 00:26:55;;;;;;;2.08;1.77;;;6.30;99.90;;;;;;5015046;28;20043;-64
2023/11/10 00:29:27;;;;;;;3.85;1.90;;;6.30;99.90;;;;;;5038044;28;20045;-64
2023/11/10 00:31:59;;;;;;;3.08;1.70;;;6.30;99.90;;;;;;5017034;28;20050;-64
2023/11/10 00:34:31;;;;;;;2.80;1.77;;;6.30;99.90;;;;;;5038926;28;20037;-64
2023/11/10 00:36:58;;;;;;;2.05;1.50;;;6.30;99.90;;;;;;5037117;28;20048;-64
2023/11/10 00:39:31;;;;;;;1.85;1.55;;;6.30;99.90;;;;;;5017553;28;20115;-65
2023/11/10 00:42:03;;;;;;;2.95;1.85;;;6.20;99.90;;;;;;5011046;28;20041;-64
2023/11/10 00:44:30;;;;;;;2.70;1.95;;;6.20;99.90;;;;;;5005988;28;20045;-64
2023/11/10 00:47:02;;;;;;;4.07;1.92;;;6.20;99.90;;;;;;5026130;28;20048;-64
2023/11/10 00:49:30;;;;;;;2.35;1.67;;;6.10;99.90;;;;;;5020557;28;20038;-64
2023/11/10 00:51:57;;;;;;;2.65;2.03;;;6.10;99.90;;;;;;4999871;28;20170;-64
2023/11/10 00:54:23;;;;;;;3.20;2.20;;;6.10;99.90;;;;;;5010176;28;20505;-64
2023/11/10 00:56:50;;;;;;;2.63;1.73;;;6.10;99.90;;;;;;5015364;28;20148;-64
2023/11/10 00:59:17;;;;;;;3.15;1.77;;;6.10;99.90;;;;;;5017139;28;20029;-64
2023/11/10 01:01:49;;;;;;;2.75;1.77;;;6.00;99.90;;;;;;5014808;28;20047;-65
2023/11/10 01:04:21;;;;;;;3.08;2.40;;;6.00;99.90;;;;;;5036722;28;20041;-65
2023/11/10 01:06:53;;;;;;;2.72;2.28;;;6.10;99.90;;;;;;5018376;28;20051;-64
2023/11/10 01:09:25;;;;;;;1.98;1.73;;;6.10;99.90;;;;;;5021151;28;20041;-65
2023/11/10 01:11:58;;;;;;;2.70;2.38;;;6.10;99.90;;;;;;4995235;28;20069;-64
2023/11/10 01:14:30;;;;;;;3.22;2.20;;;6.10;99.90;;;;;;5008487;28;20064;-64
2023/11/10 01:17:02;;;;;;;2.13;1.38;;;6.10;99.90;;;;;;5009340;28;20050;-65
2023/11/10 01:19:36;;;;;;;2.67;1.90;;;6.10;99.90;;;;;;5025783;28;20055;-64
2023/11/10 01:22:08;;;;;;;2.55;1.85;;;6.10;99.90;;;;;;5014528;28;20041;-64
2023/11/10 01:24:40;;;;;;;3.05;1.90;;;6.20;99.90;;;;;;5015720;28;20505;-64
2023/11/10 01:27:12;;;;;;;3.80;1.80;;;6.30;99.90;;;;;;5007572;28;20044;-64
2023/11/10 01:29:39;;;;;;;2.65;1.63;;;6.20;99.90;;;;;;5033613;28;20041;-64
2023/11/10 01:32:15;;;;;;;2.87;1.73;;;6.30;99.90;;;;;;5022268;28;20045;-65
2023/11/10 01:34:42;;;;;;;4.22;1.95;;;6.30;99.90;;;;;;5009283;28;20047;-64
2023/11/10 01:37:13;;;;;;;2.67;1.90;;;6.30;99.90;;;;;;5018217;28;20570;-65
2023/11/10 01:39:40;;;;;;;2.50;1.85;;;6.40;99.90;;;;;;5040474;28;20449;-64
2023/11/10 01:42:13;;;;;;;3.03;1.70;;;6.30;99.90;;;;;;5019407;28;20587;-63
2023/11/10 01:44:45;;;;;;;2.42;1.85;;;6.30;99.90;;;;;;5023253;28;20521;-64
2023/11/10 01:47:17;;;;;;;2.83;2.15;;;6.30;99.90;;;;;;5026604;28;20085;-64
2023/11/10 01:49:49;;;;;;;3.17;2.40;;;6.30;99.90;;;;;;5014869;28;20038;-63
2023/11/10 01:52:20;;;;;;;3.00;2.13;;;6.30;99.90;;;;;;5002423;28;20037;-64
2023/11/10 01:54:52;;;;;;;4.53;2.45;;;6.30;99.90;;;;;;5015966;28;20060;-64
2023/11/10 01:57:24;;;;;;;3.08;2.10;;;6.30;99.90;;;;;;5037293;28;20037;-64
2023/11/10 01:59:54;;;;;;;2.38;1.85;;;6.30;99.90;;;;;;5023865;28;20052;-64
2023/11/10 02:02:27;;;;;;;4.10;2.20;;;6.40;99.90;;;;;;5007917;28;20042;-64
2023/11/10 02:04:59;;;;;;;3.53;2.25;;;6.40;99.90;;;;;;5021539;28;20049;-64
2023/11/10 02:07:30;;;;;;;3.20;2.28;;;6.40;99.90;;;;;;5022864;28;20045;-64
2023/11/10 02:10:03;;;;;;;2.25;1.75;;;6.50;99.90;;;;;;5020298;28;20045;-64
2023/11/10 02:12:35;;;;;;;3.72;2.30;;;6.50;99.90;;;;;;5027357;28;20045;-64
2023/11/10 02:15:08;;;;;;;2.60;1.83;;;6.50;99.90;;;;;;5007194;28;20164;-64
2023/11/10 02:17:40;;;;;;;3.08;2.17;;;6.60;99.90;;;;;;5008542;28;20050;-64
2023/11/10 02:20:08;;;;;;;2.83;2.30;;;6.60;99.90;;;;;;5016430;28;20041;-64
2023/11/10 02:22:42;;;;;;;2.85;2.10;;;6.60;99.90;;;;;;5018842;28;20057;-64
2023/11/10 02:25:18;;;;;;;3.75;2.47;;;6.60;99.90;;;;;;5013320;28;20121;-64
2023/11/10 02:27:46;;;;;;;3.28;2.17;;;6.60;99.90;;;;;;5021421;28;20033;-64
2023/11/10 02:30:18;;;;;;;2.72;2.00;;;6.60;99.90;;;;;;5005048;28;20482;-64
2023/11/10 02:32:50;;;;;;;4.45;2.40;;;6.60;99.90;;;;;;5023431;28;20048;-64
2023/11/10 02:35:22;;;;;;;3.08;1.80;;;6.60;99.90;;;;;;5020097;28;20114;-64
2023/11/10 02:37:49;;;;;;;5.70;4.22;;;6.50;99.90;;;;;;5031523;28;20040;-64
2023/11/10 02:40:21;;;;;;;4.57;3.47;;;6.50;99.90;;;;;;5022396;28;20048;-64
2023/11/10 02:42:52;;;;;;;5.20;3.95;;;6.40;99.90;;;;;;5038372;28;20045;-64
2023/11/10 02:45:24;;;;;;;4.40;3.10;;;6.30;99.90;;;;;;5044605;28;20041;-64
2023/11/10 02:47:56;;;;;;;5.05;3.70;;;6.20;99.90;;;;;;5017708;28;20046;-65
2023/11/10 02:50:28;;;;;;;6.07;3.40;;;6.10;99.90;;;;;;5015079;28;20041;-64
2023/11/10 02:53:00;;;;;;;5.60;2.70;;;6.10;99.90;;;;;;5018336;28;20077;-64
2023/11/10 02:55:27;;;;;;;4.00;3.33;;;6.10;99.90;;;;;;5035865;28;20075;-64
2023/11/10 02:57:59;;;;;;;4.45;3.00;;;6.00;99.90;;;;;;5015026;28;20041;-64
2023/11/10 03:00:31;;;;;;;3.55;2.75;;;6.00;99.90;;;;;;5016732;28;20048;-64
2023/11/10 03:03:03;;;;;;;3.95;3.10;;;6.00;99.90;;;;;;5022128;28;20038;-64
2023/11/10 03:05:35;;;;;;;3.90;3.22;;;6.00;99.90;;;;;;5010876;28;20033;-64
2023/11/10 03:08:07;;;;;;;3.97;3.33;;;6.00;99.90;;;;;;5025094;28;20136;-64
2023/11/10 03:10:39;;;;;;;4.68;3.45;;;6.00;99.90;;;;;;5039069;28;20049;-64
2023/11/10 03:13:11;;;;;;;5.13;2.95;;;5.90;99.90;;;;;;5035544;28;20094;-64
2023/11/10 03:15:43;;;;;;;3.95;2.45;;;5.90;99.90;;;;;;5019688;28;20047;-64
2023/11/10 03:18:10;;;;;;;3.30;2.60;;;5.90;99.90;;;;;;5017814;28;20049;-64
2023/11/10 03:20:42;;;;;;;3.13;2.15;;;5.90;99.90;;;;;;5023339;28;20133;-64
2023/11/10 03:23:15;;;;;;;2.87;2.37;;;5.90;99.90;;;;;;5012799;28;20044;-64
2023/11/10 03:25:42;;;;;;;3.38;2.30;;;5.80;99.90;;;;;;5004244;28;20124;-64
2023/11/10 03:28:08;;;;;;;3.00;2.20;;;5.80;99.90;;;;;;5034631;28;20409;-64
2023/11/10 03:30:40;;;;;;;5.38;2.45;;;5.70;99.90;;;;;;5025482;28;20036;-64
2023/11/10 03:33:07;;;;;;;3.40;2.13;;;5.70;99.90;;;;;;5013086;28;20043;-64
2023/11/10 03:35:39;;;;;;;3.80;2.30;;;5.60;99.90;;;;;;5020847;28;20037;-64
2023/11/10 03:38:10;;;;;;;3.55;2.28;;;5.70;99.90;;;;;;5019937;28;20037;-64
2023/11/10 03:40:42;;;;;;;3.92;1.90;;;5.70;99.90;;;;;;5038148;28;20033;-64
2023/11/10 03:43:14;;;;;;;3.10;1.83;;;5.70;99.90;;;;;;5033668;28;20726;-65
2023/11/10 03:45:46;;;;;;;3.05;1.98;;;5.70;99.90;;;;;;5043166;28;20033;-64
2023/11/10 03:48:18;;;;;;;2.90;1.90;;;5.80;99.90;;;;;;5028236;28;20041;-64
2023/11/10 03:50:50;;;;;;;2.67;1.95;;;5.80;99.90;;;;;;5032595;28;20056;-64
2023/11/10 03:53:22;;;;;;;2.67;1.73;;;5.80;99.90;;;;;;5037479;28;20081;-64
2023/11/10 03:55:54;;;;;;;2.75;2.15;;;5.90;99.90;;;;;;5005404;28;20410;-64
2023/11/10 03:58:26;;;;;;;2.80;2.20;;;5.90;99.90;;;;;;5024771;28;20050;-64
2023/11/10 04:00:52;;;;;;;3.53;2.50;;;5.90;99.90;;;;;;5033763;28;20041;-64
2023/11/10 04:03:24;;;;;;;3.65;2.30;;;5.90;99.90;;;;;;5035226;28;20041;-64
2023/11/10 04:05:51;;;;;;;2.63;2.25;;;5.90;99.90;;;;;;5044075;28;20068;-64
2023/11/10 04:08:23;;;;;;;3.05;2.10;;;5.90;99.90;;;;;;5032570;28;20045;-64
2023/11/10 04:10:55;;;;;;;2.72;1.80;;;5.90;99.90;;;;;;5036894;28;20564;-64
2023/11/10 04:13:27;;;;;;;2.55;1.90;;;5.90;99.90;;;;;;5036373;28;20121;-64
2023/11/10 04:15:59;;;;;;;2.47;1.85;;;5.90;99.90;;;;;;5036186;28;20067;-64
2023/11/10 04:18:31;;;;;;;4.75;2.30;;;6.00;99.90;;;;;;5023060;28;20087;-64
2023/11/10 04:21:03;;;;;;;4.45;1.88;;;6.00;99.90;;;;;;5032856;28;20048;-64
2023/11/10 04:23:29;;;;;;;5.85;2.08;;;6.00;99.90;;;;;;5027076;28;20042;-64
2023/11/10 04:26:05;;;;;;;2.70;2.03;;;6.00;99.90;;;;;;5013763;28;20060;-64
2023/11/10 04:28:40;;;;;;;3.22;2.33;;;6.10;99.90;;;;;;5027744;28;20051;-64
2023/11/10 04:31:14;;;;;;;2.65;2.15;;;6.10;99.90;;;;;;5015718;28;20132;-64
2023/11/10 04:33:46;;;;;;;3.35;1.80;;;6.10;99.90;;;;;;4998486;28;20053;-64
2023/11/10 04:36:13;;;;;;;3.45;2.00;;;6.00;99.90;;;;;;5034083;28;20140;-64
2023/11/10 04:38:47;;;;;;;2.95;2.40;;;6.10;99.90;;;;;;5013480;28;20052;-64
2023/11/10 04:41:15;;;;;;;4.65;2.22;;;6.10;99.90;;;;;;5034444;28;20132;-64
2023/11/10 04:43:47;;;;;;;5.33;2.10;;;6.10;99.90;;;;;;5036819;28;20038;-64
2023/11/10 04:46:18;;;;;;;2.15;1.60;;;6.10;99.90;;;;;;5038483;28;20060;-64
2023/11/10 04:48:45;;;;;;;2.92;2.08;;;6.20;99.90;;;;;;5033737;28;20025;-64
2023/11/10 04:51:12;;;;;;;2.60;2.00;;;6.20;99.90;;;;;;5033123;28;20052;-64
2023/11/10 04:53:44;;;;;;;4.65;2.30;;;6.30;99.90;;;;;;5034861;28;20037;-64
2023/11/10 04:56:16;;;;;;;3.22;2.28;;;6.30;99.90;;;;;;5010296;28;20057;-64
2023/11/10 04:58:48;;;;;;;2.90;2.20;;;6.40;99.90;;;;;;5037848;28;20037;-64
2023/11/10 05:01:20;;;;;;;2.83;2.10;;;6.40;99.90;;;;;;5025054;28;20053;-64
2023/11/10 05:03:52;;;;;;;3.55;2.20;;;6.40;99.90;;;;;;5036516;28;20069;-65
2023/11/10 05:06:29;;;;;;;2.28;1.85;;;6.50;99.90;;;;;;5017005;28;20057;-70
2023/11/10 05:09:05;;;;;;;2.60;2.10;;;6.50;99.90;;;;;;5014650;28;20060;-64
2023/11/10 05:11:36;;;;;;;3.38;2.10;;;6.60;99.90;;;;;;5019506;28;20045;-64
2023/11/10 05:14:03;;;;;;;3.17;2.38;;;6.70;99.90;;;;;;5043233;28;20523;-64
2023/11/10 05:16:35;;;;;;;2.33;2.00;;;6.70;99.90;;;;;;5041247;28;20124;-65
2023/11/10 05:19:07;;;;;;;2.42;2.20;;;6.80;99.90;;;;;;5025927;28;20091;-65
2023/11/10 05:21:39;;;;;;;3.38;2.50;;;6.80;99.90;;;;;;4999150;28;20045;-64
2023/11/10 05:24:12;;;;;;;2.30;2.10;;;6.80;99.90;;;;;;5018732;28;20064;-65
2023/11/10 05:26:44;;;;;;;2.88;2.00;;;6.90;99.90;;;;;;5045148;28;20042;-64
2023/11/10 05:29:16;;;;;;;3.63;2.63;;;6.90;99.90;;;;;;5018940;28;20052;-65
2023/11/10 05:31:48;;;;;;;2.63;1.75;;;6.90;99.90;;;;;;5018515;28;20071;-65
2023/11/10 05:34:20;;;;;;;2.70;2.40;;;6.90;99.90;;;;;;5020124;28;20046;-65
2023/11/10 05:36:52;;;;;;;3.00;2.30;;;6.90;99.90;;;;;;5033873;28;20055;-64
2023/11/10 05:39:24;;;;;;;2.80;2.17;;;6.90;99.90;;;;;;5021517;28;20045;-64
2023/11/10 05:41:51;;;;;;;3.35;2.35;;;6.90;99.90;;;;;;5024243;28;20072;-64
2023/11/10 05:44:23;;;;;;;4.68;2.20;;;6.90;99.90;;;;;;5038710;28;20413;-65
2023/11/10 05:46:55;;;;;;;4.65;2.35;;;6.90;99.90;;;;;;5033005;28;20038;-65
2023/11/10 05:49:28;;;;;;;2.72;2.08;;;6.90;99.90;;;;;;5033070;28;20034;-64
2023/11/10 05:51:55;;;;;;;3.35;2.28;;;6.90;99.90;;;;;;5040641;28;20053;-64
2023/11/10 05:54:22;;;;;;;3.90;2.38;;;6.90;99.90;;;;;;5044465;28;20132;-64
2023/11/10 05:56:54;;;;;;;3.17;2.15;;;6.90;99.90;;;;;;5013419;28;20617;-64
2023/11/10 05:59:22;;;;;;;4.60;2.42;;;6.80;99.90;;;;;;5013174;28;20128;-64
2023/11/10 06:01:56;;;;;;;3.30;2.53;;;6.80;99.90;;;;;;5031484;28;20044;-64
2023/11/10 06:04:28;;;;;;;2.88;2.30;;;6.80;99.90;;;;;;5014604;28;20060;-66
2023/11/10 06:07:00;;;;;;;3.22;2.70;;;6.70;99.90;;;;;;5032706;28;20497;-64
2023/11/10 06:09:27;;;;;;;3.83;2.45;;;6.70;99.90;;;;;;5041263;28;20045;-64
2023/11/10 06:11:59;;;;;;;4.57;2.53;;;6.70;99.90;;;;;;5040272;28;20122;-65
2023/11/10 06:14:31;;;;;;;3.60;3.20;;;6.70;99.90;;;;;;5037430;28;20057;-65
2023/11/10 06:17:03;;;;;;;4.18;2.67;;;6.70;99.90;;;;;;5034710;28;20618;-64
2023/11/10 06:19:35;;;;;;;2.90;2.55;;;6.70;99.90;;;;;;5036232;28;20042;-65
2023/11/10 06:22:07;;;;;;;4.50;2.55;;;6.70;99.90;;;;;;5021347;28;20508;-65
2023/11/10 06:24:34;;;;;;;2.38;1.95;;;6.60;99.90;;;;;;5035565;28;20143;-66
2023/11/10 06:27:06;;;;;;;2.67;2.15;;;6.60;99.90;;;;;;5001287;28;20055;-66
2023/11/10 06:29:33;;;;;;;3.38;2.50;;;6.60;99.90;;;;;;5028938;28;20397;-65
2023/11/10 06:32:06;;;;;;;2.90;1.80;;;6.60;99.90;;;;;;5009897;28;20029;-65
2023/11/10 06:34:38;;;;;;;3.90;2.70;;;6.60;99.90;;;;;;5016862;28;20055;-66
2023/11/10 06:37:12;;;;;;;3.65;2.40;;;6.50;99.90;;;;;;5035964;28;20056;-65
2023/11/10 06:39:44;;;;;;;4.22;2.35;;;6.50;99.90;;;;;;5034913;28;20130;-65
2023/11/10 06:42:11;;;;;;;2.20;1.75;;;6.50;99.90;;;;;;5036307;28;20072;-65
2023/11/10 06:44:45;;;;;;;3.00;1.85;;;6.50;99.90;;;;;;5024990;28;20041;-66
2023/11/10 06:47:12;;;;;;;2.65;1.98;;;6.50;99.90;;;;;;5036685;28;20046;-65
2023/11/10 06:49:44;;;;;;;2.65;1.83;;;6.50;99.90;;;;;;5036026;28;20534;-65
2023/11/10 06:52:16;;;;;;;3.75;1.73;;;6.50;99.90;;;;;;5040762;28;20037;-65
2023/11/10 06:54:48;;;;;;;2.80;2.00;;;6.50;99.90;;;;;;5017520;28;20077;-65
2023/11/10 06:57:20;;;;;;;2.70;1.88;;;6.40;99.90;;;;;;5019480;28;20052;-66
2023/11/10 06:59:52;;;;;;;3.05;1.63;;;6.50;99.90;;;;;;5013353;28;20060;-65
2023/11/10 07:02:24;;;;;;;1.83;1.52;;;6.50;99.90;;;;;;5020907;28;20041;-65
2023/11/10 07:04:56;;;;;;;2.42;1.50;;;6.50;99.90;;;;;;5033929;28;20029;-65
2023/11/10 07:07:23;;;;;;;1.67;1.20;;;6.50;99.90;;;;;;5019977;28;20052;-66
2023/11/10 07:09:50;;;;;;;2.00;1.20;;;6.40;99.90;;;;;;5017028;28;20041;-65
2023/11/10 07:12:22;;;;;;;1.70;1.00;;;6.50;99.90;;;;;;5020883;28;20041;-65
2023/11/10 07:14:54;;;;;;;2.17;1.20;;;6.50;99.90;;;;;;5034634;28;20647;-65
2023/11/10 07:17:26;;;;;;;2.85;1.40;;;6.50;99.90;;;;;;5039666;28;20041;-66
2023/11/10 07:19:57;;;;;;;1.45;1.02;;;6.50;99.90;;;;;;5038829;28;20037;-65
2023/11/10 07:22:24;;;;;;;3.17;1.80;;;6.40;99.90;;;;;;5004518;28;20054;-65
2023/11/10 07:24:56;;;;;;;1.52;1.35;;;6.40;99.90;;;;;;5037629;28;20531;-65
2023/11/10 07:27:28;;;;;;;1.55;1.30;;;6.40;99.90;;;;;;5018998;28;20414;-66
2023/11/10 07:29:55;;;;;;;2.58;1.10;;;6.40;99.90;;;;;;5015170;28;20067;-65
2023/11/10 07:32:24;;;;;;;1.25;0.90;;;6.40;99.90;;;;;;5028858;28;20494;-65
2023/11/10 07:34:55;;;;;;;2.97;1.83;;;6.40;99.90;;;;;;5030040;28;20401;-65
2023/11/10 07:37:34;;;;;;;2.10;1.10;;;6.40;99.90;;;;;;5017133;28;20457;-65
2023/11/10 07:40:08;;;;;;;2.20;0.70;;;6.40;99.90;;;;;;5018786;28;20048;-65
2023/11/10 07:42:44;;;;;;;2.13;1.00;;;6.30;99.90;;;;;;5035486;28;20049;-66
2023/11/10 07:45:17;;;;;;;1.35;0.82;;;6.30;99.90;;;;;;5034842;28;20063;-66
2023/11/10 07:47:50;;;;;;;2.10;0.57;;;6.30;99.90;;;;;;5023962;28;20045;-68
2023/11/10 07:50:26;;;;;;;2.30;0.70;;;6.30;99.90;;;;;;5023798;28;20095;-66
2023/11/10 07:52:58;;;;;;;0.63;0.45;;;6.30;99.90;;;;;;5029994;28;20049;-66
2023/11/10 07:55:30;;;;;;;1.60;0.60;;;6.30;99.90;;;;;;5004291;28;20561;-66
2023/11/10 07:58:03;;;;;;;0.50;0.40;;;6.30;99.90;;;;;;5035776;28;20051;-67
2023/11/10 08:00:35;;;;;;;0.70;0.50;;;6.30;99.90;;;;;;5017848;28;20146;-66
2023/11/10 08:03:07;;;;;;;0.40;0.35;;;6.30;99.90;;;;;;5001294;28;20046;-66
2023/11/10 08:05:41;;;;;;;0.80;0.40;;;6.30;99.90;;;;;;5026938;28;20041;-66
2023/11/10 08:08:13;;;;;;;0.70;0.32;;;6.30;99.90;;;;;;5033590;28;20889;-65
2023/11/10 08:10:45;;;;;;;1.27;0.30;;;6.30;99.90;;;;;;5040243;28;20047;-66
2023/11/10 08:13:17;;;;;;;1.05;0.40;;;6.30;99.90;;;;;;5029122;28;20053;-66
2023/11/10 08:15:49;;;;;;;1.10;0.57;;;6.30;99.90;;;;;;5035385;28;20049;-66
2023/11/10 08:18:21;;;;;;;1.33;0.30;;;6.30;99.90;;;;;;5036342;28;20052;-67
2023/11/10 08:20:53;;;;;;;0.40;0.30;;;6.30;99.90;;;;;;5036133;28;20095;-66
2023/11/10 08:23:25;;;;;;;0.63;0.30;;;6.30;99.90;;;;;;5037228;28;20065;-66
2023/11/10 08:25:57;;;;;;;0.40;0.20;;;6.30;99.90;;;;;;5037409;28;20040;-66
2023/11/10 08:28:29;;;;;;;0.60;0.40;;;6.30;99.90;;;;;;5029147;28;20033;-66
2023/11/10 08:31:01;;;;;;;0.30;0.30;;;6.30;99.90;;;;;;5016382;28;20046;-66
2023/11/10 08:33:28;;;;;;;1.30;0.38;;;6.30;99.90;;;;;;5032694;28;20524;-67
2023/11/10 08:36:00;;;;;;;0.55;0.43;;;6.30;99.90;;;;;;5017828;28;20561;-66
2023/11/10 08:38:32;;;;;;;0.73;0.35;;;6.30;99.90;;;;;;5025880;28;20148;-66
2023/11/10 08:41:04;;;;;;;0.30;0.30;;;6.30;99.90;;;;;;5038077;28;20056;-66
2023/11/10 08:43:36;;;;;;;0.50;0.40;;;6.30;99.90;;;;;;5032077;28;20044;-66
2023/11/10 08:46:08;;;;;;;0.50;0.40;;;6.30;99.90;;;;;;5022755;28;20037;-66
2023/11/10 08:48:39;;;;;;;2.28;0.60;;;6.30;99.90;;;;;;5033523;28;20038;-66
2023/11/10 08:51:12;;;;;;;0.73;0.55;;;6.30;99.90;;;;;;5035533;28;20044;-66
2023/11/10 08:53:44;;;;;;;1.85;0.30;;;6.30;99.90;;;;;;5035225;28;20048;-66
2023/11/10 08:56:16;;;;;;;0.73;0.50;;;6.30;99.90;;;;;;5004081;28;20050;-66
2023/11/10 08:58:48;;;;;;;1.00;0.60;;;6.40;99.90;;;;;;5018403;28;20065;-66
2023/11/10 09:01:20;;;;;;;0.57;0.30;;;6.40;99.90;;;;;;5035516;28;20041;-72
2023/11/10 09:03:53;;;;;;;0.55;0.38;;;6.40;99.90;;;;;;4996888;28;20076;-64
2023/11/10 09:06:25;;;;;;;2.90;1.75;;;6.40;99.90;;;;;;5029504;28;20398;-64
2023/11/10 09:08:57;;;;;;;0.70;0.40;;;6.60;99.90;;;;;;5030885;28;20068;-64
2023/11/10 09:11:29;;;;;;;0.52;0.30;;;6.60;99.90;;;;;;5016187;28;20413;-65
2023/11/10 09:14:01;;;;;;;0.40;0.30;;;6.80;99.90;;;;;;5030611;28;20041;-66
2023/11/10 09:16:33;;;;;;;0.40;0.40;;;6.90;99.90;;;;;;5034854;28;20540;-65
2023/11/10 09:19:05;;;;;;;0.50;0.20;;;7.00;99.90;;;;;;5035466;28;20843;-65
2023/11/10 09:21:38;;;;;;;0.80;0.35;;;7.10;99.90;;;;;;5019721;28;20047;-65
2023/11/10 09:24:10;;;;;;;2.78;0.38;;;7.10;99.90;;;;;;5037237;28;20041;-67
2023/11/10 09:26:43;;;;;;;0.40;0.20;;;7.10;99.90;;;;;;5032866;28;20152;-67
2023/11/10 09:29:15;;;;;;;;;;;7.20;99.90;;;;;;5029678;28;20510;-64
2023/11/10 09:31:47;;;;;;;0.43;0.32;;;7.30;99.90;;;;;;5025056;28;20286;-65
2023/11/10 09:34:19;;;;;;;0.40;0.30;;;7.40;99.90;;;;;;5021823;28;20063;-65
2023/11/10 09:36:50;;;;;;;0.47;0.30;;;7.60;99.90;;;;;;5027714;28;20049;-65
2023/11/10 09:39:22;;;;;;;0.43;0.30;;;7.70;99.90;;;;;;5012585;28;20053;-65
2023/11/10 09:41:56;;;;;;;0.32;0.20;;;7.80;99.90;;;;;;5031499;28;20063;-65
2023/11/10 09:44:29;;;;;;;0.35;0.20;;;7.90;99.90;;;;;;5038157;28;20128;-65
2023/11/10 09:47:02;;;;;;;1.02;0.43;;;7.90;99.90;;;;;;5019244;28;20566;-65
2023/11/10 09:49:35;;;;;;;1.30;0.52;;;7.90;99.90;;;;;;5019588;28;20056;-65
2023/11/10 09:52:08;;;;;;;1.00;0.50;;;7.90;99.90;;;;;;5004662;28;20235;-65
2023/11/10 09:54:35;;;;;;;0.60;0.30;;;7.80;99.90;;;;;;5032665;28;20060;-65
2023/11/10 09:57:08;;;;;;;0.40;0.35;;;7.80;99.90;;;;;;5020788;28;20040;-64
2023/11/10 09:59:41;;;;;;;0.45;0.35;;;7.80;99.90;;;;;;5005616;28;20056;-66
2023/11/10 10:02:14;;;;;;;0.38;0.35;;;7.90;99.90;;;;;;5017914;28;20054;-65
2023/11/10 10:04:46;;;;;;;0.57;0.38;;;7.80;99.90;;;;;;5009525;28;20038;-64
2023/11/10 10:07:18;;;;;;;1.23;0.65;;;7.80;99.90;;;;;;5032565;28;20133;-64
2023/11/10 10:09:49;;;;;;;0.95;0.65;;;7.70;99.90;;;;;;5031169;28;20038;-65
2023/11/10 10:12:24;;;;;;;1.40;0.60;;;7.80;99.90;;;;;;5026608;28;20134;-64
2023/11/10 10:14:56;;;;;;;1.10;0.50;;;7.90;99.90;;;;;;5036766;28;20056;-65
2023/11/10 10:17:39;;;;;;;0.47;0.35;;;7.80;99.90;;;;;;5042096;28;20037;-64
2023/11/10 10:20:16;;;;;;;0.70;0.50;;;7.90;99.90;;;;;;5023711;28;20060;-64
2023/11/10 10:22:48;;;;;;;0.90;0.60;;;7.90;99.90;;;;;;5022895;28;20048;-64
2023/11/10 10:25:21;;;;;;;0.68;0.50;;;7.90;99.90;;;;;;5043404;28;20052;-65
2023/11/10 10:27:53;;;;;;;0.82;0.50;;;7.90;99.90;;;;;;5036724;28;20124;-64
2023/11/10 10:30:20;;;;;;;1.23;0.50;;;8.00;99.90;;;;;;5019982;28;20051;-65
2023/11/10 10:32:53;;;;;;;0.55;0.47;;;8.20;99.90;;;;;;5042586;28;20077;-65
2023/11/10 10:35:24;;;;;;;1.27;0.63;;;8.30;99.90;;;;;;5016907;28;20421;-65
2023/11/10 10:38:04;;;;;;;3.33;1.30;;;8.40;99.90;;;;;;5023122;28;20128;-65
2023/11/10 10:40:36;;;;;;;0.40;0.35;;;8.40;99.90;;;;;;5021509;28;20135;-65
2023/11/10 10:43:04;;;;;;;0.73;0.30;;;8.40;99.90;;;;;;5034425;28;20039;-65
2023/11/10 10:45:39;;;;;;;0.83;0.33;;;8.40;99.90;;;;;;5014052;28;20045;-65
2023/11/10 10:48:14;;;;;;;0.68;0.40;;;8.30;99.90;;;;;;5037987;28;20044;-64
2023/11/10 10:50:48;;;;;;;0.63;0.28;;;8.20;99.90;;;;;;5035357;28;20517;-65
2023/11/10 10:53:21;;;;;;;1.48;0.20;;;8.10;99.90;;;;;;5040346;28;20057;-65
2023/11/10 10:55:52;;;;;;;0.77;0.30;;;8.00;99.90;;;;;;5037886;28;20037;-64
2023/11/10 10:58:24;;;;;;;0.40;0.22;;;8.00;99.90;;;;;;5041737;28;20041;-64
2023/11/10 11:00:58;;;;;;;0.43;0.30;;;8.00;99.90;;;;;;5037066;28;20060;-64
2023/11/10 11:03:42;;;;;;;0.28;0.22;;;8.10;99.90;;;;;;5033894;28;20064;-65
2023/11/10 11:06:16;;;;;;;;;;;8.10;99.90;;;;;;5028813;28;20049;-65
2023/11/10 11:09:02;;;;;;;0.50;0.38;;;8.20;99.90;;;;;;5034610;28;19983;-65
2023/11/10 11:12:07;;;;;;;0.60;0.20;;;8.20;99.90;;;;;;5025455;28;20387;-65
2023/11/10 11:14:52;;;;;;;0.22;0.20;;;8.20;99.90;;;;;;5011842;28;20052;-65
2023/11/10 11:17:38;;;;;;;0.20;0.20;;;8.30;99.90;;;;;;5039164;28;20051;-64
2023/11/10 11:20:14;;;;;;;0.20;0.20;;;8.20;99.90;;;;;;5031709;28;20048;-64
2023/11/10 11:22:47;;;;;;;0.20;0.20;;;8.20;99.90;;;;;;5034119;28;20045;-64
2023/11/10 11:25:19;;;;;;;0.20;0.20;;;8.20;99.90;;;;;;5037698;28;20051;-64
2023/11/10 11:27:59;;;;;;;0.20;0.20;;;8.20;99.90;;;;;;5021801;28;20047;-64
2023/11/10 11:30:36;;;;;;;0.40;0.22;;;8.20;99.90;;;;;;5008130;28;20039;-64
2023/11/10 11:33:09;;;;;;;0.20;0.20;;;8.20;99.90;;;;;;5042889;28;20124;-64
2023/11/10 11:35:46;;;;;;;0.40;0.30;;;8.20;99.90;;;;;;5021941;28;20383;-65
2023/11/10 11:38:25;;;;;;;0.55;0.38;;;8.30;99.90;;;;;;5032420;28;20053;-64
2023/11/10 11:41:02;;;;;;;0.88;0.20;;;8.30;99.90;;;;;;5032749;28;20049;-64
2023/11/10 11:43:32;;;;;;;0.95;0.30;;;8.40;99.90;;;;;;5022447;28;20545;-64
2023/11/10 11:46:04;;;;;;;0.10;0.10;;;8.40;99.90;;;;;;5028711;28;20498;-65
2023/11/10 11:48:37;;;;;;;0.20;0.10;;;8.50;99.90;;;;;;5032147;28;20116;-65
2023/11/10 11:51:08;;;;;;;0.40;0.38;;;8.50;99.90;;;;;;5035372;28;20049;-64
2023/11/10 11:53:37;;;;;;;0.43;0.20;;;8.50;99.90;;;;;;5040523;28;20065;-64
2023/11/10 11:56:10;;;;;;;0.73;0.30;;;8.50;99.90;;;;;;5038213;28;20045;-64
2023/11/10 11:58:38;;;;;;;0.15;0.15;;;8.50;99.90;;;;;;5033018;28;20045;-64
2023/11/10 12:01:06;;;;;;;0.98;0.30;;;8.50;99.90;;;;;;5031567;28;20069;-64
2023/11/10 12:03:38;;;;;;;0.40;0.20;;;8.50;99.90;;;;;;5029238;28;20033;-65
2023/11/10 12:06:10;;;;;;;0.57;0.20;;;8.60;99.90;;;;;;5032633;28;20666;-64
2023/11/10 12:08:43;;;;;;;0.50;0.45;;;8.60;99.90;;;;;;5031131;28;20030;-64
2023/11/10 12:11:15;;;;;;;0.30;0.30;;;8.80;99.90;;;;;;5009256;28;20390;-70
2023/11/10 12:13:47;;;;;;;0.32;0.25;;;8.80;99.90;;;;;;5013889;28;20149;-66
2023/11/10 12:16:19;;;;;;;0.40;0.38;;;8.60;99.90;;;;;;5009521;28;20401;-64
2023/11/10 12:18:52;;;;;;;0.20;0.20;;;8.70;99.90;;;;;;5029490;28;20049;-65
2023/11/10 12:21:26;;;;;;;0.77;0.40;;;8.70;99.90;;;;;;5031073;28;20042;-65
2023/11/10 12:23:59;;;;;;;0.45;0.28;;;8.80;99.90;;;;;;5034748;28;20037;-64
2023/11/10 12:26:40;;;;;;;0.30;0.30;;;8.60;99.90;;;;;;5040559;28;20064;-64
2023/11/10 12:29:23;;;;;;;0.90;0.30;;;8.50;99.90;;;;;;5032235;28;20038;-65
2023/11/10 12:31:55;;;;;;;1.13;0.60;;;8.50;99.90;;;;;;5038395;28;20041;-65
2023/11/10 12:34:27;;;;;;;1.23;0.40;;;8.40;99.90;;;;;;5016813;28;20402;-65
2023/11/10 12:37:03;;;;;;;0.40;0.20;;;8.30;99.90;;;;;;5030773;28;20525;-65
2023/11/10 12:39:35;;;;;;;0.35;0.25;;;8.30;99.90;;;;;;5021814;28;20690;-65
2023/11/10 12:42:07;;;;;;;0.50;0.30;;;8.30;99.90;;;;;;5031441;28;20046;-65
2023/11/10 12:44:33;;;;;;;0.30;0.30;;;8.40;99.90;;;;;;5027692;28;20052;-65
2023/11/10 12:47:06;;;;;;;1.27;0.40;;;8.40;99.90;;;;;;5028945;28;20500;-65
2023/11/10 12:49:38;;;;;;;1.65;0.40;;;8.50;99.90;;;;;;5035172;28;20037;-65
2023/11/10 12:52:09;;;;;;;1.17;0.77;;;8.60;99.90;;;;;;5021038;28;20494;-65
2023/11/10 12:54:44;;;;;;;1.38;0.40;;;8.80;99.90;;;;;;5032213;28;20049;-65
2023/11/10 12:57:16;;;;;;;1.10;0.57;;;8.90;99.90;;;;;;5035630;28;20037;-65
2023/11/10 12:59:48;;;;;;;0.80;0.52;;;9.00;99.90;;;;;;5034492;28;20061;-64
2023/11/10 13:02:20;;;;;;;0.98;0.52;;;9.10;99.90;;;;;;5038368;28;20132;-65
2023/11/10 13:04:52;;;;;;;0.70;0.50;;;9.10;99.90;;;;;;5034309;28;20045;-65
2023/11/10 13:07:24;;;;;;;0.88;0.40;;;9.00;99.90;;;;;;5032337;28;20448;-65
2023/11/10 13:09:56;;;;;;;0.60;0.50;;;9.10;99.90;;;;;;5019866;28;20484;-65
2023/11/10 13:12:29;;;;;;;1.27;0.98;;;9.20;99.90;;;;;;5010224;28;20132;-64
2023/11/10 13:14:56;;;;;;;0.70;0.40;;;9.10;99.90;;;;;;5033213;28;20056;-64
2023/11/10 13:17:28;;;;;;;0.47;0.32;;;9.20;99.90;;;;;;5016196;28;20052;-65
2023/11/10 13:20:01;;;;;;;0.85;0.60;;;9.20;99.90;;;;;;5011082;28;20045;-65
2023/11/10 13:22:33;;;;;;;2.08;0.80;;;9.30;99.90;;;;;;5034636;28;20061;-65